Página principal
METAR-TAF:

METAR-TAF

Aeroportos :

Ilha de São Vicente, Cabo Verde

Aeroporto de São Pedro

latitude: 16-49-59N, longitude: 25-03-25W, altura: 20 m

Observação actual do tempo

O boletim foi feito há 9 horas e 58 minutos, às 12:00 UTC
Vento 23 kt de es-nordeste
Temperatura 24°C
Humidade 54%
Pressão 1019 hPa
Visibilidade 10 km ou mais
Nuvens dispersasa uma altura de 2000 ft

METAR: GVSV 171200Z 06023KT 9999 SCT020 24/14 Q1019 NOSIG

Hora: 20:58 (21:58 UTC)

Previsão

O boletim foi feito há 10 horas e 58 minutos, às 11:00 UTC
Previsão válida de 17 às 12 UTC a 18 às 18 UTC
Vento 28 kt de es-nordeste
Visibilidade 10 km ou mais
Nuvens dispersasa uma altura de 2200 ft
Temporariamente
de 17 às 12 UTC a 17 às 18 UTC
Vento 28 kt de es-nordeste com rajadas de 38 kt

TAF: GVSV 171100Z 1712/1818 06028KT 9999 SCT022 TEMPO 1712/1718 07028G38KT

Observações e previsões do tempo de mais de 4000 aeroportos (mensagens METAR e TAF).

As estações disponíveis são os pontos amarelos e vermelhos sobre o mapa.

Mova o rato sobre o mapa para ver o nome da estação.

Depois clique no ponto para visualizar as observações e previsões meteorológicas.

Para alterar o mapa : clique nos botões verdes com uma cruz preta para aumentar o zoom; no botão verde com uma pitada de zoom; ou nas setas verdes para mapas adjacentes.


METAR-TAF: